Time;durP1;ratioP1;P1;durP2;ratioP2;P2;SDS_P1;SDS_P2;PMS_P1;PMS_P2;Temp;Humidity;BMP_temperature;BMP_pressure;BME280_temperature;BME280_humidity;BME280_pressure;Samples;Min_cycle;Max_cycle;Signal;HPM_P1;HPM_P2
2022/06/17 00:01:10;;;;;;;0.00;0.00;;;18.00;1.00;;;;;;5071143;28;20213;-67
2022/06/17 00:03:38;;;;;;;0.00;0.00;;;18.10;1.00;;;;;;5070779;28;20259;-67
2022/06/17 00:06:06;;;;;;;0.00;0.00;;;18.10;1.00;;;;;;5069894;28;20222;-67
2022/06/17 00:08:38;;;;;;;0.00;0.00;;;18.10;1.00;;;;;;5060150;28;20189;-66
2022/06/17 00:11:12;;;;;;;0.00;0.00;;;18.00;1.00;;;;;;5071277;28;20262;-67
2022/06/17 00:13:40;;;;;;;0.00;0.00;;;17.90;99.90;;;;;;5070892;28;20571;-67
2022/06/17 00:16:11;;;;;;;0.00;0.00;;;17.70;99.90;;;;;;5070368;28;20222;-67
2022/06/17 00:18:39;;;;;;;0.03;0.03;;;17.50;1.00;;;;;;5070407;28;20723;-67
2022/06/17 00:21:11;;;;;;;0.00;0.00;;;17.40;1.00;;;;;;5062156;28;20759;-67
2022/06/17 00:23:39;;;;;;;0.00;0.00;;;17.40;26.20;;;;;;5060918;28;20251;-67
2022/06/17 00:26:09;;;;;;;0.00;0.00;;;17.50;95.80;;;;;;5070672;28;20252;-67
2022/06/17 00:28:37;;;;;;;0.00;0.00;;;17.40;99.90;;;;;;5068053;28;20197;-66
2022/06/17 00:31:05;;;;;;;0.00;0.00;;;17.40;99.90;;;;;;5068894;28;20197;-67
2022/06/17 00:33:33;;;;;;;0.00;0.00;;;17.30;1.00;;;;;;5062676;28;20255;-66
2022/06/17 00:36:01;;;;;;;0.00;0.00;;;17.40;1.00;;;;;;5069122;28;20312;-67
2022/06/17 00:38:32;;;;;;;0.00;0.00;;;17.40;99.90;;;;;;5069902;28;20276;-67
2022/06/17 00:41:13;;;;;;;0.00;0.00;;;17.30;1.00;;;;;;5086305;28;20220;-66
2022/06/17 00:43:42;;;;;;;0.00;0.00;;;17.30;1.00;;;;;;5067713;28;20264;-69
2022/06/17 00:46:22;;;;;;;0.00;0.00;;;17.20;99.90;;;;;;5071258;28;20256;-69
2022/06/17 00:48:59;;;;;;;0.00;0.00;;;17.00;1.00;;;;;;5076068;28;20194;-69
2022/06/17 00:51:33;;;;;;;0.00;0.00;;;16.80;99.90;;;;;;5074861;28;20201;-67
2022/06/17 00:54:07;;;;;;;0.00;0.00;;;16.50;1.00;;;;;;5072691;28;20197;-67
2022/06/17 00:56:36;;;;;;;0.10;0.10;;;16.60;1.00;;;;;;5074254;28;20664;-66
2022/06/17 00:59:07;;;;;;;0.00;0.00;;;16.60;33.80;;;;;;5073238;28;20231;-67
2022/06/17 01:01:43;;;;;;;0.00;0.00;;;16.30;1.00;;;;;;5072469;28;20206;-66
2022/06/17 01:04:12;;;;;;;0.00;0.00;;;16.00;1.00;;;;;;5072861;28;20254;-67
2022/06/17 01:06:46;;;;;;;0.00;0.00;;;16.00;1.00;;;;;;5068724;28;20198;-67
2022/06/17 01:12:20;;;;;;;0.10;0.10;;;16.00;1.00;;;;;;5035059;28;20818;-67
2022/06/17 01:14:49;;;;;;;0.00;0.00;;;16.00;1.00;;;;;;5056053;28;20327;-67
2022/06/17 01:17:19;;;;;;;0.00;0.00;;;16.00;1.00;;;;;;5068236;28;20198;-67
2022/06/17 01:19:53;;;;;;;0.00;0.00;;;15.90;1.00;;;;;;5069973;28;20299;-67
2022/06/17 01:22:40;;;;;;;0.00;0.00;;;15.90;78.90;;;;;;5052678;28;20202;-67
2022/06/17 01:25:13;;;;;;;0.00;0.00;;;15.80;99.90;;;;;;5069350;28;20225;-67
2022/06/17 01:27:46;;;;;;;0.00;0.00;;;15.80;99.90;;;;;;5066693;28;20204;-67
2022/06/17 01:30:17;;;;;;;0.00;0.00;;;15.70;99.90;;;;;;5073430;28;20629;-67
2022/06/17 01:32:50;;;;;;;0.00;0.00;;;15.70;99.90;;;;;;5072038;28;20255;-67
2022/06/17 01:35:19;;;;;;;0.00;0.00;;;15.60;99.90;;;;;;5069591;28;20627;-67
2022/06/17 01:37:49;;;;;;;0.00;0.00;;;15.50;99.90;;;;;;5072717;28;20194;-67
2022/06/17 01:40:18;;;;;;;0.00;0.00;;;15.40;1.00;;;;;;5088856;28;20213;-67
2022/06/17 01:42:47;;;;;;;0.10;0.10;;;15.40;1.00;;;;;;5073263;28;20185;-67
2022/06/17 01:45:15;;;;;;;0.00;0.00;;;15.40;1.00;;;;;;5071102;28;20578;-67
2022/06/17 01:47:45;;;;;;;0.00;0.00;;;15.40;1.00;;;;;;5061709;28;20224;-68
2022/06/17 01:50:17;;;;;;;0.00;0.00;;;15.50;1.00;;;;;;5069824;28;20214;-67
2022/06/17 01:52:53;;;;;;;0.00;0.00;;;15.40;1.00;;;;;;5064082;28;20206;-67
2022/06/17 01:55:25;;;;;;;0.00;0.00;;;15.40;1.00;;;;;;5069590;28;20225;-67
2022/06/17 01:57:58;;;;;;;0.10;0.10;;;15.40;1.00;;;;;;5066970;28;20673;-67
2022/06/17 02:00:28;;;;;;;0.05;0.05;;;15.30;1.00;;;;;;5068370;28;20742;-67
2022/06/17 02:03:03;;;;;;;0.00;0.00;;;15.10;1.00;;;;;;5070257;28;20703;-67
2022/06/17 02:05:39;;;;;;;0.10;0.10;;;15.10;1.00;;;;;;5066804;28;20316;-67
2022/06/17 02:08:09;;;;;;;0.00;0.00;;;15.10;1.00;;;;;;5070875;28;20238;-67
2022/06/17 02:10:40;;;;;;;0.00;0.00;;;14.90;1.00;;;;;;5072010;28;20247;-67
2022/06/17 02:13:11;;;;;;;0.10;0.10;;;15.10;1.00;;;;;;5070867;28;20213;-67
2022/06/17 02:15:59;;;;;;;0.10;0.10;;;15.20;1.00;;;;;;5070633;28;20212;-67
2022/06/17 02:18:46;;;;;;;0.10;0.10;;;15.20;1.00;;;;;;5072226;28;20768;-67
2022/06/17 02:21:20;;;;;;;0.00;0.00;;;15.20;1.00;;;;;;5060290;28;20194;-67
2022/06/17 02:23:50;;;;;;;0.10;0.10;;;15.40;1.00;;;;;;5052560;28;20194;-67
2022/06/17 02:26:20;;;;;;;0.00;0.00;;;15.30;1.00;;;;;;5070836;28;20221;-67
2022/06/17 02:28:49;;;;;;;0.00;0.00;;;15.20;1.00;;;;;;5070820;28;20280;-67
2022/06/17 02:31:19;;;;;;;0.05;0.05;;;15.00;1.00;;;;;;5070664;28;20202;-67
2022/06/17 02:33:51;;;;;;;0.00;0.00;;;14.90;1.00;;;;;;5066634;28;20230;-67
2022/06/17 02:36:26;;;;;;;0.00;0.00;;;14.80;1.00;;;;;;5071257;28;20288;-67
2022/06/17 02:38:56;;;;;;;0.10;0.10;;;14.80;1.00;;;;;;5071585;28;20197;-67
2022/06/17 02:41:24;;;;;;;0.00;0.00;;;14.60;1.00;;;;;;5072263;28;20198;-67
2022/06/17 02:43:57;;;;;;;0.00;0.00;;;14.30;99.90;;;;;;5070174;28;20213;-66
2022/06/17 02:46:29;;;;;;;0.10;0.10;;;14.30;99.90;;;;;;5063714;28;20217;-67
2022/06/17 02:49:00;;;;;;;0.10;0.10;;;14.40;99.90;;;;;;5065864;28;20679;-67
2022/06/17 02:51:32;;;;;;;0.00;0.00;;;14.40;99.90;;;;;;5070562;28;20216;-67
2022/06/17 02:54:04;;;;;;;0.00;0.00;;;14.40;99.90;;;;;;5071375;28;20213;-67
2022/06/17 02:56:35;;;;;;;0.00;0.00;;;14.40;99.90;;;;;;5067005;28;20664;-67
2022/06/17 02:59:10;;;;;;;0.10;0.10;;;14.50;99.90;;;;;;5069457;28;20198;-67
2022/06/17 03:01:45;;;;;;;0.10;0.10;;;14.30;99.90;;;;;;5051696;28;20288;-67
2022/06/17 03:04:30;;;;;;;0.10;0.10;;;14.40;99.90;;;;;;5062205;28;20225;-67
2022/06/17 03:06:59;;;;;;;0.00;0.00;;;14.40;99.90;;;;;;5081379;28;20291;-66
2022/06/17 03:09:31;;;;;;;0.00;0.00;;;14.40;99.90;;;;;;5061652;28;20201;-66
2022/06/17 03:12:04;;;;;;;0.10;0.10;;;14.40;99.90;;;;;;5087064;28;20209;-67
2022/06/17 03:14:40;;;;;;;0.10;0.10;;;14.40;99.90;;;;;;5065262;28;20222;-67
2022/06/17 03:17:12;;;;;;;0.10;0.10;;;14.30;99.90;;;;;;5067022;28;20537;-66
2022/06/17 03:19:41;;;;;;;0.00;0.00;;;14.30;99.90;;;;;;5069970;28;20280;-67
2022/06/17 03:22:13;;;;;;;0.00;0.00;;;14.30;99.90;;;;;;5069790;28;20288;-66
2022/06/17 03:24:49;;;;;;;0.10;0.10;;;14.20;99.90;;;;;;5062500;28;20217;-67
2022/06/17 03:27:21;;;;;;;0.05;0.05;;;14.20;99.90;;;;;;5069343;28;20216;-67
2022/06/17 03:29:51;;;;;;;0.00;0.00;;;14.20;99.90;;;;;;5071153;28;20198;-67
2022/06/17 03:32:23;;;;;;;0.10;0.10;;;14.20;99.90;;;;;;5066888;28;20344;-67
2022/06/17 03:34:54;;;;;;;0.00;0.00;;;14.20;99.90;;;;;;5050487;28;20756;-67
2022/06/17 03:37:29;;;;;;;0.10;0.10;;;14.10;99.90;;;;;;5059470;28;20189;-67
2022/06/17 03:40:05;;;;;;;0.10;0.10;;;14.10;99.90;;;;;;5067158;28;20216;-67
2022/06/17 03:42:43;;;;;;;0.10;0.10;;;14.10;99.90;;;;;;5069117;28;20637;-67
2022/06/17 03:45:17;;;;;;;0.10;0.10;;;14.20;99.90;;;;;;5068818;28;20221;-67
2022/06/17 03:47:52;;;;;;;0.00;0.00;;;14.00;99.90;;;;;;5084000;28;20560;-67
2022/06/17 03:50:26;;;;;;;0.00;0.00;;;13.90;1.00;;;;;;5062196;28;20208;-67
2022/06/17 03:52:58;;;;;;;0.10;0.10;;;13.60;1.00;;;;;;5069830;28;20315;-67
2022/06/17 03:55:28;;;;;;;0.03;0.03;;;13.60;1.00;;;;;;5065449;28;20218;-67
2022/06/17 03:58:01;;;;;;;0.10;0.10;;;13.60;1.00;;;;;;5059186;28;20284;-67
2022/06/17 04:00:47;;;;;;;0.10;0.10;;;13.70;1.00;;;;;;5069419;28;20197;-67
2022/06/17 04:03:18;;;;;;;0.10;0.10;;;13.60;1.00;;;;;;5070932;28;20193;-67
2022/06/17 04:05:53;;;;;;;0.10;0.10;;;13.70;1.00;;;;;;5067479;28;20218;-67
2022/06/17 04:08:21;;;;;;;0.05;0.05;;;13.70;1.00;;;;;;5070638;28;20208;-67
2022/06/17 04:10:50;;;;;;;0.10;0.10;;;13.70;1.00;;;;;;5072576;28;20225;-67
2022/06/17 04:13:22;;;;;;;0.00;0.00;;;13.80;1.00;;;;;;5070849;28;20202;-67
2022/06/17 04:16:09;;;;;;;0.10;0.10;;;13.80;1.00;;;;;;5070167;28;20214;-67
2022/06/17 04:18:37;;;;;;;0.03;0.03;;;13.90;1.00;;;;;;5073195;28;20201;-67
2022/06/17 04:21:07;;;;;;;0.00;0.00;;;13.90;1.00;;;;;;5073670;28;20641;-67
2022/06/17 04:23:36;;;;;;;0.00;0.00;;;13.80;1.00;;;;;;5074026;28;20202;-67
2022/06/17 04:26:18;;;;;;;0.10;0.10;;;13.80;1.00;;;;;;5069742;28;20233;-67
2022/06/17 04:28:50;;;;;;;0.10;0.10;;;13.90;1.00;;;;;;5073001;28;20193;-67
2022/06/17 04:31:23;;;;;;;0.10;0.10;;;13.90;1.00;;;;;;5073082;28;20211;-67
2022/06/17 04:34:02;;;;;;;0.10;0.10;;;13.90;1.00;;;;;;5089887;28;20683;-67
2022/06/17 04:36:42;;;;;;;0.00;0.00;;;14.10;99.90;;;;;;5070953;28;20198;-67
2022/06/17 04:39:22;;;;;;;0.00;0.00;;;14.20;99.90;;;;;;5073012;28;20605;-67
2022/06/17 04:42:16;;;;;;;0.10;0.10;;;14.30;99.90;;;;;;5073052;28;20692;-67
2022/06/17 04:44:45;;;;;;;0.00;0.00;;;14.20;99.90;;;;;;5072898;28;20217;-67
2022/06/17 04:47:18;;;;;;;0.10;0.10;;;14.10;99.90;;;;;;5071737;28;20970;-67
2022/06/17 04:49:54;;;;;;;0.10;0.10;;;14.20;99.90;;;;;;5067652;28;20206;-67
2022/06/17 04:52:34;;;;;;;0.10;0.10;;;14.40;99.90;;;;;;5064907;28;20536;-68
2022/06/17 04:55:20;;;;;;;0.10;0.10;;;14.50;99.90;;;;;;5053070;28;20577;-67
2022/06/17 04:58:22;;;;;;;0.00;0.00;;;14.50;99.90;;;;;;5070946;28;20202;-67
2022/06/17 05:00:58;;;;;;;0.00;0.00;;;14.60;99.90;;;;;;5080869;28;20224;-67
2022/06/17 05:03:46;;;;;;;0.10;0.10;;;14.60;99.90;;;;;;5081065;28;20198;-67
2022/06/17 05:06:18;;;;;;;0.10;0.10;;;14.70;44.60;;;;;;5078887;28;20217;-67
2022/06/17 05:08:50;;;;;;;0.10;0.10;;;14.80;13.10;;;;;;5080207;28;20283;-67
2022/06/17 05:11:27;;;;;;;0.00;0.00;;;14.90;1.00;;;;;;5081575;28;20672;-70
2022/06/17 05:14:02;;;;;;;0.10;0.10;;;15.00;1.00;;;;;;5079645;28;20629;-67
2022/06/17 05:16:31;;;;;;;0.10;0.10;;;15.20;1.00;;;;;;5080356;28;20573;-67
2022/06/17 05:18:58;;;;;;;0.10;0.10;;;15.30;1.00;;;;;;5078431;28;20669;-68
2022/06/17 05:21:27;;;;;;;0.00;0.00;;;15.40;1.00;;;;;;5082467;28;20201;-69
2022/06/17 05:24:11;;;;;;;0.00;0.00;;;15.40;1.00;;;;;;5080259;28;20202;-68
2022/06/17 05:26:38;;;;;;;0.10;0.10;;;15.50;99.90;;;;;;5077331;28;20227;-67
2022/06/17 05:29:09;;;;;;;0.10;0.10;;;15.60;99.90;;;;;;5077976;28;20438;-68
2022/06/17 05:31:49;;;;;;;0.00;0.00;;;15.60;99.90;;;;;;5081120;28;20695;-68
2022/06/17 05:34:19;;;;;;;0.00;0.00;;;15.60;99.90;;;;;;5081055;28;20198;-68
2022/06/17 05:36:47;;;;;;;0.10;0.10;;;15.70;5.70;;;;;;5082113;28;20268;-67
2022/06/17 05:39:16;;;;;;;0.00;0.00;;;15.80;1.00;;;;;;5079723;28;20193;-68
2022/06/17 05:41:44;;;;;;;0.00;0.00;;;15.80;1.00;;;;;;5079699;28;20289;-67
2022/06/17 05:44:14;;;;;;;0.00;0.00;;;15.80;1.00;;;;;;5080635;28;20201;-67
2022/06/17 05:46:48;;;;;;;0.10;0.10;;;15.90;1.00;;;;;;5079896;28;20224;-67
2022/06/17 05:49:15;;;;;;;0.10;0.10;;;16.00;1.00;;;;;;5076791;28;20205;-67
2022/06/17 05:52:02;;;;;;;0.00;0.00;;;16.20;1.00;;;;;;5080836;28;20211;-67
2022/06/17 05:55:00;;;;;;;0.10;0.10;;;16.20;18.70;;;;;;5075560;28;20248;-67
2022/06/17 05:57:28;;;;;;;0.00;0.00;;;16.30;1.00;;;;;;5080090;28;20225;-67
2022/06/17 05:59:58;;;;;;;0.00;0.00;;;16.40;1.00;;;;;;5079650;28;20276;-69
2022/06/17 06:02:39;;;;;;;0.10;0.10;;;16.40;1.00;;;;;;5081856;28;20276;-67
2022/06/17 06:05:18;;;;;;;0.00;0.00;;;16.60;1.00;;;;;;5080258;28;20252;-67
2022/06/17 06:07:48;;;;;;;0.10;0.10;;;16.70;1.00;;;;;;5077731;28;20527;-67
2022/06/17 06:10:17;;;;;;;0.00;0.00;;;16.80;99.90;;;;;;5079991;28;20719;-67
2022/06/17 06:12:54;;;;;;;0.00;0.00;;;16.80;1.00;;;;;;5079209;28;20206;-67
2022/06/17 06:15:30;;;;;;;0.00;0.00;;;16.90;1.00;;;;;;5079287;28;20699;-69
2022/06/17 06:18:19;;;;;;;0.00;0.00;;;16.90;1.00;;;;;;5079504;28;20679;-67
2022/06/17 06:20:48;;;;;;;0.00;0.00;;;17.00;1.00;;;;;;5080556;28;20221;-67
2022/06/17 06:23:22;;;;;;;0.00;0.00;;;17.10;99.90;;;;;;5095615;28;20201;-67
2022/06/17 06:25:50;;;;;;;0.00;0.00;;;17.10;99.90;;;;;;5079382;28;20225;-67
2022/06/17 06:28:21;;;;;;;0.00;0.00;;;17.20;1.00;;;;;;5079441;28;20316;-67
2022/06/17 06:30:58;;;;;;;0.00;0.00;;;17.30;1.00;;;;;;5079796;28;20209;-68
2022/06/17 06:33:26;;;;;;;0.00;0.00;;;17.40;1.00;;;;;;5080457;28;20209;-67
2022/06/17 06:35:54;;;;;;;0.00;0.00;;;17.40;99.90;;;;;;5083372;28;20232;-68
2022/06/17 06:38:22;;;;;;;0.00;0.00;;;17.50;1.00;;;;;;5080619;28;20224;-68
2022/06/17 06:40:51;;;;;;;0.00;0.00;;;17.60;1.00;;;;;;5079095;28;20197;-67
2022/06/17 06:43:22;;;;;;;0.00;0.00;;;17.70;99.90;;;;;;5080764;28;20201;-67
2022/06/17 06:46:13;;;;;;;0.00;0.00;;;17.80;99.90;;;;;;5081037;28;20772;-67
2022/06/17 06:48:49;;;;;;;0.00;0.00;;;18.10;99.90;;;;;;5080577;28;20223;-68
2022/06/17 06:51:18;;;;;;;0.00;0.00;;;18.40;1.00;;;;;;5078234;28;20688;-67
2022/06/17 06:53:47;;;;;;;0.00;0.00;;;18.50;99.90;;;;;;5082541;28;20196;-67
2022/06/17 06:56:19;;;;;;;0.00;0.00;;;18.80;1.00;;;;;;5083728;22;20644;-70
2022/06/17 06:58:47;;;;;;;0.00;0.00;;;18.80;1.00;;;;;;5056854;28;20195;-69
2022/06/17 07:01:16;;;;;;;0.00;0.00;;;18.70;1.00;;;;;;5049503;28;20256;-70
2022/06/17 07:03:44;;;;;;;0.00;0.00;;;18.80;1.00;;;;;;5050043;28;20217;-70
2022/06/17 07:06:15;;;;;;;0.00;0.00;;;18.90;1.00;;;;;;5047214;28;20225;-70
2022/06/17 07:08:43;;;;;;;0.00;0.00;;;19.00;1.00;;;;;;5039051;28;20222;-70
2022/06/17 07:11:13;;;;;;;0.00;0.00;;;19.10;99.90;;;;;;5042547;28;20214;-70
2022/06/17 07:13:42;;;;;;;0.00;0.00;;;19.30;99.90;;;;;;5040894;28;20585;-69
2022/06/17 07:16:11;;;;;;;0.00;0.00;;;19.50;99.90;;;;;;5042307;28;20243;-70
2022/06/17 07:18:41;;;;;;;0.00;0.00;;;19.60;99.90;;;;;;5041152;28;20282;-70
2022/06/17 07:21:11;;;;;;;0.00;0.00;;;19.80;99.90;;;;;;5042000;28;20198;-69
2022/06/17 07:23:41;;;;;;;0.00;0.00;;;20.00;99.90;;;;;;5040859;28;20746;-70
2022/06/17 07:26:12;;;;;;;0.00;0.00;;;20.00;99.90;;;;;;5041759;28;20219;-69
2022/06/17 07:28:40;;;;;;;0.00;0.00;;;20.10;99.90;;;;;;5040590;28;20704;-70
2022/06/17 07:31:08;;;;;;;0.00;0.00;;;20.30;99.90;;;;;;5041440;28;20546;-70
2022/06/17 07:33:36;;;;;;;0.00;0.00;;;20.50;99.90;;;;;;5040872;28;20206;-69
2022/06/17 07:36:07;;;;;;;0.00;0.00;;;20.50;99.20;;;;;;5044476;28;20215;-69
2022/06/17 07:41:25;;;;;;;0.00;0.00;;;20.90;81.60;;;;;;5043575;28;20203;-69
2022/06/17 07:43:54;;;;;;;0.00;0.00;;;21.10;60.50;;;;;;5041254;28;20195;-69
2022/06/17 07:46:24;;;;;;;0.00;0.00;;;21.30;35.20;;;;;;5042224;28;20309;-69
2022/06/17 07:48:52;;;;;;;0.00;0.00;;;21.30;15.10;;;;;;5047064;28;20227;-69
2022/06/17 07:51:21;;;;;;;0.00;0.00;;;21.40;7.90;;;;;;5047883;28;20273;-69
2022/06/17 07:53:49;;;;;;;0.00;0.00;;;21.30;4.30;;;;;;5054264;28;20538;-69
2022/06/17 07:56:18;;;;;;;0.00;0.00;;;21.40;1.00;;;;;;5068629;28;20225;-69
2022/06/17 07:58:46;;;;;;;0.00;0.00;;;21.40;1.00;;;;;;5064364;28;20186;-69
2022/06/17 08:01:15;;;;;;;0.00;0.00;;;21.50;1.00;;;;;;5064355;28;20202;-68
2022/06/17 08:03:43;;;;;;;0.00;0.00;;;21.80;1.00;;;;;;5063821;28;20700;-69
2022/06/17 08:06:13;;;;;;;0.00;0.00;;;22.00;1.00;;;;;;5063313;28;20225;-69
2022/06/17 08:08:42;;;;;;;0.00;0.00;;;22.00;1.00;;;;;;5064471;28;20597;-69
2022/06/17 08:11:11;;;;;;;0.00;0.00;;;22.00;1.00;;;;;;5063242;28;20228;-69
2022/06/17 08:13:39;;;;;;;0.00;0.00;;;22.10;1.00;;;;;;5063872;28;20680;-68
2022/06/17 08:16:09;;;;;;;0.00;0.00;;;22.30;1.00;;;;;;5063961;28;20226;-69
2022/06/17 08:18:38;;;;;;;0.00;0.00;;;22.60;1.00;;;;;;5064623;28;20198;-69
2022/06/17 08:21:07;;;;;;;0.00;0.00;;;22.80;1.00;;;;;;5061575;28;20201;-69
2022/06/17 08:23:35;;;;;;;0.00;0.00;;;22.90;1.00;;;;;;5058498;28;20583;-69
2022/06/17 08:26:05;;;;;;;0.00;0.00;;;23.00;1.00;;;;;;5060608;28;20249;-69
2022/06/17 08:28:33;;;;;;;0.00;0.00;;;23.10;1.00;;;;;;5060418;28;20226;-69
2022/06/17 08:31:00;;;;;;;0.00;0.00;;;23.40;1.00;;;;;;5062664;28;20199;-69
2022/06/17 08:33:29;;;;;;;0.00;0.00;;;23.50;1.00;;;;;;5062743;28;20237;-69
2022/06/17 08:36:16;;;;;;;0.00;0.00;;;23.40;1.00;;;;;;5063598;28;20283;-69
2022/06/17 08:38:48;;;;;;;0.00;0.00;;;23.60;1.00;;;;;;5062658;28;20684;-69
2022/06/17 08:41:26;;;;;;;0.00;0.00;;;23.60;1.00;;;;;;5062764;28;20202;-69
2022/06/17 08:44:28;;;;;;;0.00;0.00;;;23.50;1.00;;;;;;5062829;28;20292;-69
2022/06/17 08:47:19;;;;;;;0.00;0.00;;;23.60;1.00;;;;;;5062134;28;20209;-69
2022/06/17 08:50:27;;;;;;;0.00;0.00;;;23.80;1.00;;;;;;5062375;28;20602;-70
2022/06/17 08:53:19;;;;;;;0.00;0.00;;;23.80;1.00;;;;;;5062754;28;20193;-70
2022/06/17 08:55:55;;;;;;;0.00;0.00;;;24.00;1.00;;;;;;5062327;28;20234;-70
2022/06/17 08:58:36;;;;;;;0.00;0.00;;;24.40;1.00;;;;;;5062649;28;20601;-69
2022/06/17 09:01:14;;;;;;;0.00;0.00;;;24.60;1.00;;;;;;5062972;28;20260;-69
2022/06/17 09:04:07;;;;;;;0.00;0.00;;;24.70;1.00;;;;;;5062871;28;20616;-69
2022/06/17 09:06:47;;;;;;;0.00;0.00;;;24.70;1.00;;;;;;5062209;28;20210;-69
2022/06/17 09:09:33;;;;;;;0.00;0.00;;;24.50;1.00;;;;;;5060972;28;20217;-69
2022/06/17 09:12:10;;;;;;;0.00;0.00;;;24.80;1.00;;;;;;5062008;28;20722;-69
2022/06/17 09:14:55;;;;;;;0.00;0.00;;;24.90;1.00;;;;;;5061135;28;20733;-69
2022/06/17 09:17:30;;;;;;;0.00;0.00;;;24.60;1.00;;;;;;5063726;28;20221;-69
2022/06/17 09:20:06;;;;;;;0.00;0.00;;;24.50;1.00;;;;;;5063822;28;20198;-70
2022/06/17 09:22:39;;;;;;;0.00;0.00;;;24.50;1.00;;;;;;5062285;28;20201;-69
2022/06/17 09:25:10;;;;;;;0.00;0.00;;;24.70;1.00;;;;;;5061875;28;20232;-71
2022/06/17 09:27:39;;;;;;;0.00;0.00;;;24.70;1.00;;;;;;5061522;28;20210;-69
2022/06/17 09:30:15;;;;;;;0.00;0.00;;;24.90;1.00;;;;;;5062813;28;20223;-71
2022/06/17 09:32:47;;;;;;;0.00;0.00;;;25.30;1.00;;;;;;5062393;28;20216;-71
2022/06/17 09:35:27;;;;;;;0.00;0.00;;;25.60;1.00;;;;;;5060107;28;20330;-71
2022/06/17 09:37:59;;;;;;;0.00;0.00;;;25.90;1.00;;;;;;5061384;28;20204;-70
2022/06/17 09:40:34;;;;;;;0.00;0.00;;;26.10;1.00;;;;;;5062130;28;20198;-71
2022/06/17 09:43:09;;;;;;;0.00;0.00;;;26.10;1.00;;;;;;5061431;28;20573;-71
2022/06/17 09:45:44;;;;;;;0.00;0.00;;;26.00;1.00;;;;;;5061736;28;20230;-71
2022/06/17 09:48:17;;;;;;;0.00;0.00;;;26.00;1.00;;;;;;5062031;28;20207;-71
2022/06/17 09:50:49;;;;;;;0.00;0.00;;;26.10;1.00;;;;;;5061505;28;20271;-71
2022/06/17 09:53:22;;;;;;;0.00;0.00;;;26.30;1.00;;;;;;5062048;28;20209;-71
2022/06/17 09:55:56;;;;;;;0.00;0.00;;;26.30;1.00;;;;;;5061629;28;20244;-71
2022/06/17 09:58:30;;;;;;;0.00;0.00;;;26.20;1.00;;;;;;5062631;28;20217;-71
2022/06/17 10:01:00;;;;;;;0.00;0.00;;;25.80;1.00;;;;;;5061534;28;20202;-71
2022/06/17 10:03:31;;;;;;;0.00;0.00;;;25.80;1.00;;;;;;5060769;28;20603;-71
2022/06/17 10:06:09;;;;;;;0.00;0.00;;;25.40;1.00;;;;;;5058981;28;20283;-71
2022/06/17 10:08:50;;;;;;;0.00;0.00;;;25.70;1.00;;;;;;5059751;28;20197;-69
2022/06/17 10:11:28;;;;;;;0.00;0.00;;;25.40;1.00;;;;;;5059500;28;20650;-69
2022/06/17 10:14:12;;;;;;;0.00;0.00;;;25.40;1.00;;;;;;5061159;28;20190;-70
2022/06/17 10:19:41;;;;;;;0.00;0.00;;;26.00;1.00;;;;;;5062752;28;20198;-69
2022/06/17 10:22:19;;;;;;;0.00;0.00;;;26.20;1.00;;;;;;5060990;28;20233;-69
2022/06/17 10:25:00;;;;;;;0.00;0.00;;;26.50;1.00;;;;;;5059995;28;20811;-69
2022/06/17 10:27:42;;;;;;;0.00;0.00;;;26.80;1.00;;;;;;5062289;28;20687;-69
2022/06/17 10:30:23;;;;;;;0.00;0.00;;;27.10;1.00;;;;;;5060394;28;20222;-70
2022/06/17 10:32:55;;;;;;;0.00;0.00;;;27.30;1.00;;;;;;5061110;28;20202;-69
2022/06/17 10:35:27;;;;;;;0.00;0.00;;;26.60;1.00;;;;;;5061117;28;20580;-69
2022/06/17 10:37:57;;;;;;;0.00;0.00;;;27.00;1.00;;;;;;5060704;28;20201;-69
2022/06/17 10:40:30;;;;;;;0.00;0.00;;;27.50;1.00;;;;;;5061096;28;20194;-69
2022/06/17 10:43:04;;;;;;;0.00;0.00;;;27.40;1.00;;;;;;5060549;28;20216;-69
2022/06/17 10:45:32;;;;;;;0.00;0.00;;;26.80;1.00;;;;;;5061835;28;20725;-70
2022/06/17 10:48:05;;;;;;;0.00;0.00;;;27.10;1.00;;;;;;5060161;28;20701;-70
2022/06/17 10:50:33;;;;;;;0.00;0.00;;;27.50;1.00;;;;;;5061053;28;20226;-69
2022/06/17 10:53:11;;;;;;;0.00;0.00;;;27.80;1.00;;;;;;5060799;28;20451;-69
2022/06/17 10:55:41;;;;;;;0.00;0.00;;;28.10;1.00;;;;;;5059665;28;20405;-70
2022/06/17 10:58:16;;;;;;;0.00;0.00;;;28.00;1.00;;;;;;5059688;28;20243;-70
2022/06/17 11:00:53;;;;;;;0.00;0.00;;;28.20;1.00;;;;;;5058889;28;20599;-72
2022/06/17 11:03:25;;;;;;;0.00;0.00;;;28.40;1.00;;;;;;5060557;28;20201;-69
2022/06/17 11:05:57;;;;;;;0.00;0.00;;;28.00;1.00;;;;;;5060902;28;20268;-70
2022/06/17 11:08:29;;;;;;;0.00;0.00;;;27.90;1.00;;;;;;5059528;28;20207;-69
2022/06/17 11:12:02;;;;;;;0.00;0.00;;;27.80;1.00;;;;;;5061768;28;20225;-69
2022/06/17 11:13:48;;;;;;;0.00;0.00;;;27.60;1.00;;;;;;5060710;28;20201;-69
2022/06/17 11:16:22;;;;;;;0.00;0.00;;;27.90;1.00;;;;;;5059754;28;20579;-69
2022/06/17 11:18:59;;;;;;;0.00;0.00;;;28.40;1.00;;;;;;5062102;28;20206;-69
2022/06/17 11:21:32;;;;;;;0.00;0.00;;;28.80;1.00;;;;;;5060058;28;20189;-69
2022/06/17 11:24:00;;;;;;;0.00;0.00;;;29.00;1.00;;;;;;5060239;28;20210;-69
2022/06/17 11:26:31;;;;;;;0.00;0.00;;;29.10;1.00;;;;;;5060115;28;20217;-71
2022/06/17 11:29:02;;;;;;;0.00;0.00;;;29.10;1.00;;;;;;5059976;28;20680;-71
2022/06/17 11:31:38;;;;;;;0.00;0.00;;;29.00;1.00;;;;;;5060685;28;20640;-72
2022/06/17 11:34:17;;;;;;;0.00;0.00;;;29.20;1.00;;;;;;5060488;28;20201;-71
2022/06/17 11:37:10;;;;;;;0.00;0.00;;;29.20;1.00;;;;;;5058805;28;20226;-71
2022/06/17 11:39:39;;;;;;;0.00;0.00;;;29.30;1.00;;;;;;5056821;28;20205;-71
2022/06/17 11:42:17;;;;;;;0.00;0.00;;;28.70;1.00;;;;;;5059408;28;20554;-71
2022/06/17 11:44:51;;;;;;;0.00;0.00;;;29.10;1.00;;;;;;5062324;28;20226;-71
2022/06/17 11:47:21;;;;;;;0.00;0.00;;;29.30;1.00;;;;;;5065394;28;20205;-71
2022/06/17 11:49:53;;;;;;;0.00;0.00;;;29.40;1.00;;;;;;5063306;28;20217;-71
2022/06/17 11:52:28;;;;;;;0.00;0.00;;;29.70;1.00;;;;;;5061847;28;20202;-69
2022/06/17 11:54:56;;;;;;;0.00;0.00;;;29.80;1.00;;;;;;5059587;28;20240;-71
2022/06/17 11:57:29;;;;;;;0.00;0.00;;;29.40;1.00;;;;;;5061532;28;20205;-71
2022/06/17 11:59:59;;;;;;;0.00;0.00;;;29.20;1.00;;;;;;5059543;28;20698;-71
2022/06/17 12:02:27;;;;;;;0.00;0.00;;;29.00;1.00;;;;;;5059818;28;20204;-71
2022/06/17 12:05:07;;;;;;;0.00;0.00;;;29.20;1.00;;;;;;5058960;28;20308;-71
2022/06/17 12:07:43;;;;;;;0.00;0.00;;;29.40;1.00;;;;;;5059119;28;20205;-71
2022/06/17 12:10:35;;;;;;;0.00;0.00;;;29.70;1.00;;;;;;5060234;28;20230;-71
2022/06/17 12:13:11;;;;;;;0.00;0.00;;;30.00;1.00;;;;;;5060681;28;20216;-71
2022/06/17 12:15:45;;;;;;;0.00;0.00;;;29.90;1.00;;;;;;5059608;28;20221;-71
2022/06/17 12:18:19;;;;;;;0.00;0.00;;;29.90;1.00;;;;;;5058775;28;20197;-71
2022/06/17 12:21:02;;;;;;;0.00;0.00;;;30.00;1.00;;;;;;5059474;28;20217;-71
2022/06/17 12:23:38;;;;;;;0.00;0.00;;;29.90;1.00;;;;;;5060513;28;20271;-71
2022/06/17 12:26:12;;;;;;;0.00;0.00;;;29.80;1.00;;;;;;5059031;28;20225;-71
2022/06/17 12:28:45;;;;;;;0.00;0.00;;;29.80;1.00;;;;;;5060126;28;20202;-71
2022/06/17 12:31:22;;;;;;;0.00;0.00;;;29.90;1.00;;;;;;5060580;28;20217;-71
2022/06/17 12:34:02;;;;;;;0.00;0.00;;;29.90;1.00;;;;;;5061512;28;20274;-71
2022/06/17 12:36:36;;;;;;;0.00;0.00;;;29.80;1.00;;;;;;5062859;28;20279;-71
2022/06/17 12:39:11;;;;;;;0.00;0.00;;;30.00;1.00;;;;;;5065360;28;20198;-71
2022/06/17 12:41:48;;;;;;;0.00;0.00;;;30.10;1.00;;;;;;5068897;28;20207;-69
2022/06/17 12:44:23;;;;;;;0.00;0.00;;;30.10;1.00;;;;;;5063788;28;20204;-71
2022/06/17 12:47:02;;;;;;;0.00;0.00;;;30.20;1.00;;;;;;5063614;28;20221;-71
2022/06/17 12:55:26;;;;;;;0.00;0.00;;;30.10;1.00;;;;;;5086796;22;20234;-68
2022/06/17 12:58:04;;;;;;;0.00;0.00;;;30.30;1.00;;;;;;5063193;28;20209;-67
2022/06/17 13:00:38;;;;;;;0.00;0.00;;;30.40;1.00;;;;;;5062489;28;20691;-67
2022/06/17 13:03:44;;;;;;;0.00;0.00;;;30.40;1.00;;;;;;5063203;28;20198;-67
2022/06/17 13:06:21;;;;;;;0.00;0.00;;;30.20;1.00;;;;;;5062066;28;20588;-67
2022/06/17 13:09:00;;;;;;;0.00;0.00;;;29.50;1.00;;;;;;5061280;28;20201;-67
2022/06/17 13:11:39;;;;;;;0.00;0.00;;;29.40;1.00;;;;;;5060316;28;20226;-67
2022/06/17 13:14:21;;;;;;;0.00;0.00;;;29.50;1.00;;;;;;5061189;28;20206;-67
2022/06/17 13:16:56;;;;;;;0.00;0.00;;;29.60;1.00;;;;;;5064089;28;20271;-67
2022/06/17 13:19:30;;;;;;;0.00;0.00;;;29.80;1.00;;;;;;5062110;28;20204;-67
2022/06/17 13:22:07;;;;;;;0.00;0.00;;;29.90;1.00;;;;;;5062313;28;20613;-67
2022/06/17 13:24:45;;;;;;;0.00;0.00;;;30.00;1.00;;;;;;5063776;28;20679;-67
2022/06/17 13:27:19;;;;;;;0.00;0.00;;;30.10;1.00;;;;;;5061533;28;20255;-67
2022/06/17 13:29:55;;;;;;;0.00;0.00;;;30.10;1.00;;;;;;5064145;28;20202;-67
2022/06/17 13:32:25;;;;;;;0.00;0.00;;;30.10;1.00;;;;;;5062172;28;20225;-67
2022/06/17 13:34:58;;;;;;;0.00;0.00;;;30.00;1.00;;;;;;5061096;28;20189;-67
2022/06/17 13:37:30;;;;;;;0.00;0.00;;;29.50;1.00;;;;;;5060317;28;20205;-67
2022/06/17 13:40:11;;;;;;;0.00;0.00;;;29.10;1.00;;;;;;5059918;28;20193;-67
2022/06/17 13:42:40;;;;;;;0.00;0.00;;;29.10;1.00;;;;;;5061112;28;20458;-67
2022/06/17 13:45:18;;;;;;;0.00;0.00;;;28.60;1.00;;;;;;5061438;28;20221;-67